Time;durP1;ratioP1;P1;durP2;ratioP2;P2;SDS_P1;SDS_P2;PMS_P1;PMS_P2;Temp;Humidity;BMP_temperature;BMP_pressure;BME280_temperature;BME280_humidity;BME280_pressure;Samples;Min_cycle;Max_cycle;Signal;HPM_P1;HPM_P2
2021/09/14 00:01:40;;;;;;;12.68;8.15;;;18.30;99.90;;;18.59;76.01;101560.50;5113451;28;20097;-77
2021/09/14 00:04:08;;;;;;;14.13;8.57;;;18.30;99.90;;;18.32;76.42;101554.03;5113240;28;20100;-76
2021/09/14 00:06:40;;;;;;;16.27;8.80;;;18.20;99.90;;;18.42;76.35;101552.00;5112933;28;20071;-76
2021/09/14 00:09:09;;;;;;;12.05;8.38;;;18.10;99.90;;;18.45;76.39;101558.19;5112813;28;20047;-76
2021/09/14 00:11:39;;;;;;;11.13;8.63;;;18.20;99.90;;;18.51;76.36;101563.38;5112842;28;20477;-77
2021/09/14 00:14:08;;;;;;;11.65;8.23;;;18.20;99.90;;;18.54;76.25;101563.28;5112801;28;20040;-77
2021/09/14 00:16:36;;;;;;;12.82;8.00;;;18.20;99.90;;;18.52;76.32;101553.56;5112861;28;20536;-77
2021/09/14 00:19:05;;;;;;;10.98;8.77;;;18.30;99.90;;;18.49;76.21;101551.81;5112737;28;20048;-77
2021/09/14 00:21:33;;;;;;;12.65;8.35;;;18.20;99.90;;;18.54;76.31;101557.06;5112691;28;20065;-77
2021/09/14 00:24:03;;;;;;;9.50;7.88;;;18.20;99.90;;;18.55;76.39;101558.81;5112774;28;20055;-76
2021/09/14 00:26:31;;;;;;;13.27;8.30;;;18.20;99.90;;;18.60;76.16;101565.81;5112803;28;20454;-76
2021/09/14 00:29:00;;;;;;;13.43;8.35;;;18.30;99.90;;;18.58;76.30;101567.66;5116700;28;20122;-76
2021/09/14 00:31:29;;;;;;;12.20;8.43;;;18.30;99.90;;;18.62;76.20;101568.47;5116953;28;20138;-77
2021/09/14 00:33:57;;;;;;;12.35;8.60;;;18.30;99.90;;;18.54;76.11;101563.28;5098826;28;20074;-76
2021/09/14 00:36:26;;;;;;;13.00;7.82;;;18.30;99.90;;;18.56;76.24;101564.13;5117019;28;20044;-77
2021/09/14 00:38:55;;;;;;;12.40;8.32;;;18.30;99.90;;;18.57;76.32;101562.34;5098807;28;20039;-78
2021/09/14 00:41:24;;;;;;;11.55;8.65;;;18.30;99.90;;;18.50;76.12;101548.25;5117093;28;20473;-76
2021/09/14 00:43:57;;;;;;;12.60;8.53;;;18.30;99.90;;;18.42;76.52;101552.91;5116979;28;20150;-77
2021/09/14 00:46:26;;;;;;;13.02;8.38;;;18.20;99.90;;;18.44;76.46;101553.75;5116861;28;20056;-78
2021/09/14 00:48:55;;;;;;;13.60;9.02;;;18.20;99.90;;;18.40;76.66;101552.03;5116766;28;20071;-76
2021/09/14 00:51:25;;;;;;;12.80;8.23;;;18.20;99.90;;;18.38;76.70;101553.00;5116537;28;20457;-77
2021/09/14 00:53:54;;;;;;;12.05;8.48;;;18.10;99.90;;;18.31;77.03;101546.91;5098175;28;20063;-77
2021/09/14 00:56:25;;;;;;;12.48;8.77;;;18.00;99.90;;;18.37;76.96;101541.38;5116472;28;20146;-77
2021/09/14 00:58:53;;;;;;;13.32;8.93;;;18.10;99.90;;;18.38;76.82;101542.28;5116728;28;20047;-77
2021/09/14 01:01:22;;;;;;;15.63;9.10;;;18.10;99.90;;;18.18;77.49;101534.75;5116722;28;20039;-76
2021/09/14 01:03:50;;;;;;;15.13;9.85;;;18.00;99.90;;;17.96;77.94;101531.69;5116757;28;20071;-77
2021/09/14 01:06:19;;;;;;;19.05;10.18;;;17.90;99.90;;;18.03;78.00;101522.63;5116640;28;20049;-77
2021/09/14 01:08:47;;;;;;;14.15;9.70;;;17.80;99.90;;;18.05;78.18;101525.25;5116334;28;20047;-76
2021/09/14 01:11:16;;;;;;;14.73;9.48;;;17.80;99.90;;;17.92;78.39;101526.47;5116223;28;20063;-77
2021/09/14 01:13:46;;;;;;;14.05;9.15;;;17.70;99.90;;;17.80;79.09;101522.28;5115954;28;20063;-76
2021/09/14 01:16:15;;;;;;;12.95;9.80;;;17.60;99.90;;;17.79;79.24;101523.19;5097838;28;20074;-76
2021/09/14 01:18:44;;;;;;;16.13;10.13;;;17.50;99.90;;;17.66;79.24;101492.28;5097735;28;20052;-77
2021/09/14 01:21:20;;;;;;;11.10;9.00;;;17.60;99.90;;;17.80;79.33;101522.28;5097755;28;20069;-77
2021/09/14 01:23:52;;;;;;;15.73;8.90;;;17.50;99.90;;;17.72;79.81;101513.56;5097813;28;20044;-77
2021/09/14 01:26:20;;;;;;;12.93;9.85;;;17.50;99.90;;;17.74;79.71;101513.53;5097633;28;20040;-77
2021/09/14 01:28:50;;;;;;;12.50;9.80;;;17.50;99.90;;;17.59;80.14;101505.84;5097615;28;20046;-77
2021/09/14 01:31:19;;;;;;;16.15;10.13;;;17.40;99.90;;;17.61;80.33;101510.25;5097590;28;20050;-77
2021/09/14 01:33:49;;;;;;;15.07;10.20;;;17.40;99.90;;;17.67;80.32;101501.22;5097892;28;20145;-77
2021/09/14 01:36:21;;;;;;;15.77;10.55;;;17.40;99.90;;;17.63;80.38;101504.88;5097845;28;20104;-76
2021/09/14 01:38:52;;;;;;;;;;;17.40;99.90;;;17.71;80.20;101500.22;5097162;28;20112;-77
2021/09/14 01:41:21;;;;;;;15.85;10.35;;;17.50;99.90;;;17.67;80.19;101511.91;5097726;28;19920;-76
2021/09/14 01:43:51;;;;;;;14.35;10.48;;;17.40;99.90;;;17.70;80.11;101507.38;5098176;28;20055;-77
2021/09/14 01:46:20;;;;;;;15.10;10.25;;;17.40;99.90;;;17.70;79.89;101511.81;5097569;28;20105;-76
2021/09/14 01:48:48;;;;;;;14.07;10.50;;;17.40;99.90;;;17.82;79.75;101517.78;5116060;28;20047;-76
2021/09/14 01:51:18;;;;;;;15.52;9.63;;;17.50;99.90;;;17.90;79.52;101514.94;5115895;28;20450;-76
2021/09/14 01:53:52;;;;;;;11.30;9.80;;;17.60;99.90;;;16.14;79.14;101212.44;5115997;28;20088;-77
2021/09/14 01:56:22;;;;;;;17.65;10.88;;;17.60;99.90;;;17.83;79.45;101513.28;5116032;28;20044;-77
2021/09/14 01:58:52;;;;;;;12.67;9.80;;;17.60;99.90;;;17.94;79.06;101506.75;5115965;28;20040;-77
2021/09/14 02:01:25;;;;;;;14.75;10.77;;;17.60;99.90;;;17.94;78.93;101496.06;5097877;28;20305;-77
2021/09/14 02:03:59;;;;;;;14.40;10.07;;;17.70;99.90;;;17.94;78.79;101492.53;5097644;28;20149;-77
2021/09/14 02:59:54;;;;;;;14.38;10.30;;;17.50;99.90;;;17.73;78.67;101444.88;5114511;28;20377;-77
2021/09/14 03:02:24;;;;;;;13.65;10.23;;;17.50;99.90;;;17.64;78.84;101431.69;5114541;28;20108;-77
2021/09/14 03:04:52;;;;;;;14.30;10.77;;;17.40;99.90;;;17.61;79.11;101437.13;5096373;28;20044;-77
2021/09/14 03:07:22;;;;;;;13.43;10.60;;;17.30;99.90;;;17.59;79.35;101433.63;5096349;28;20067;-77
2021/09/14 03:09:51;;;;;;;14.15;11.07;;;17.30;99.90;;;17.51;79.31;101425.78;5096247;28;20062;-76
2021/09/14 03:12:19;;;;;;;15.63;11.50;;;17.30;99.90;;;17.57;79.32;101408.69;5114434;28;20120;-77
2021/09/14 03:14:49;;;;;;;13.38;11.45;;;17.30;99.90;;;17.57;79.42;101419.41;5096003;28;20043;-77
2021/09/14 03:17:18;;;;;;;16.00;11.35;;;17.30;99.90;;;17.46;79.61;101426.78;5096127;28;20043;-77
2021/09/14 03:19:48;;;;;;;13.45;11.80;;;17.20;99.90;;;17.44;79.81;101425.94;5096094;28;20051;-77
2021/09/14 03:22:17;;;;;;;13.77;11.73;;;17.20;99.90;;;17.51;79.59;101424.88;5096214;28;20054;-77
2021/09/14 03:24:46;;;;;;;16.58;11.98;;;17.20;99.90;;;17.43;79.48;101427.72;5096051;28;20043;-76
2021/09/14 03:27:17;;;;;;;13.25;11.20;;;17.20;99.90;;;17.47;79.56;101423.16;5096326;28;20382;-76
2021/09/14 03:29:46;;;;;;;16.63;11.70;;;17.20;99.90;;;17.36;79.82;101418.09;5095920;28;20565;-76
2021/09/14 03:32:15;;;;;;;18.52;12.60;;;17.10;99.90;;;17.28;79.89;101395.97;5114230;28;20083;-77
2021/09/14 03:34:45;;;;;;;15.95;12.27;;;17.10;99.90;;;17.17;80.55;101399.81;5095839;28;20138;-77
2021/09/14 03:37:15;;;;;;;16.08;12.48;;;16.90;99.90;;;17.23;80.42;101397.00;5095867;28;20050;-77
2021/09/14 03:39:43;;;;;;;17.17;13.53;;;17.00;99.90;;;17.00;80.63;101401.06;5095842;28;20071;-77
2021/09/14 03:42:16;;;;;;;20.85;13.18;;;16.80;99.90;;;17.07;80.95;101400.00;5095917;28;20047;-77
2021/09/14 03:44:45;;;;;;;18.75;13.38;;;16.80;99.90;;;16.97;81.22;101402.94;5095530;28;20054;-76
2021/09/14 03:47:16;;;;;;;18.25;13.75;;;16.70;99.90;;;17.05;81.03;101393.81;5095611;28;20450;-77
2021/09/14 03:49:47;;;;;;;17.90;12.77;;;16.80;99.90;;;16.92;81.29;101396.78;5095782;28;20048;-76
2021/09/14 03:52:16;;;;;;;19.42;14.35;;;16.70;99.90;;;16.85;81.55;101401.41;5095503;28;20071;-77
2021/09/14 03:54:45;;;;;;;17.50;14.02;;;16.70;99.90;;;16.92;81.53;101408.38;5095697;28;20545;-76
2021/09/14 03:57:13;;;;;;;17.90;13.93;;;16.70;99.90;;;16.89;81.66;101407.56;5095590;28;20040;-77
2021/09/14 03:59:42;;;;;;;17.10;13.23;;;16.70;99.90;;;17.01;81.61;101402.81;5095576;28;20039;-77
2021/09/14 04:02:24;;;;;;;18.90;14.48;;;16.70;99.90;;;17.01;81.21;101413.50;5095039;28;20135;-77
2021/09/14 04:05:04;;;;;;;15.95;13.82;;;16.80;99.90;;;17.06;81.03;101411.63;5095559;28;20044;-77
2021/09/14 04:07:49;;;;;;;14.18;12.48;;;16.80;99.90;;;17.06;81.02;101414.31;5095663;28;20048;-68
2021/09/14 04:10:19;;;;;;;19.02;12.93;;;16.80;99.90;;;16.90;80.78;101372.78;5095545;28;20488;-81
2021/09/14 04:12:48;;;;;;;18.53;13.27;;;16.80;99.90;;;17.10;80.61;101407.09;5095364;28;20048;-77
2021/09/14 04:15:16;;;;;;;15.52;13.73;;;16.90;99.90;;;17.03;80.66;101406.34;5094994;28;20293;-79
2021/09/14 04:17:45;;;;;;;19.27;13.52;;;16.80;99.90;;;17.12;80.63;101403.47;5095398;28;20260;-77
2021/09/14 04:20:14;;;;;;;19.10;13.82;;;16.90;99.90;;;17.06;80.46;101386.69;5113614;28;20047;-78
2021/09/14 04:22:46;;;;;;;18.55;14.05;;;16.90;99.90;;;17.01;80.70;101401.97;5095472;28;20058;-77
2021/09/14 04:25:15;;;;;;;18.70;13.77;;;16.80;99.90;;;16.98;80.78;101392.22;5095198;28;20070;-80
2021/09/14 04:27:43;;;;;;;18.35;13.77;;;16.80;99.90;;;16.86;81.09;101387.13;5095505;28;20290;-80
2021/09/14 04:30:12;;;;;;;17.75;13.70;;;16.70;99.90;;;17.02;81.10;101393.91;5113578;28;20461;-80
2021/09/14 04:32:41;;;;;;;21.08;14.13;;;16.80;99.90;;;17.04;80.89;101385.84;5095056;28;20126;-80
2021/09/14 04:35:10;;;;;;;17.67;13.73;;;16.80;99.90;;;17.04;81.04;101397.41;5095170;28;20051;-80
2021/09/14 04:37:40;;;;;;;20.63;14.48;;;16.80;99.90;;;17.11;80.83;101395.50;5095266;28;20084;-80
2021/09/14 04:40:12;;;;;;;19.63;13.82;;;16.90;99.90;;;16.95;81.13;101394.97;5095240;28;20054;-80
2021/09/14 04:42:41;;;;;;;19.98;13.60;;;16.70;99.90;;;16.93;81.14;101388.78;5095144;28;20488;-80
2021/09/14 04:45:11;;;;;;;20.88;13.85;;;16.80;99.90;;;17.03;81.05;101379.59;5094972;28;20093;-79
2021/09/14 04:47:40;;;;;;;19.38;14.48;;;16.80;99.90;;;16.94;80.93;101358.44;5095080;28;20409;-80
2021/09/14 04:50:10;;;;;;;17.67;14.15;;;16.80;99.90;;;17.00;80.82;101379.69;5095191;28;20559;-81
2021/09/14 04:52:39;;;;;;;18.90;13.43;;;16.80;99.90;;;17.02;80.80;101380.53;5094995;28;20074;-81
2021/09/14 04:55:10;;;;;;;17.55;14.27;;;16.80;99.90;;;16.86;81.04;101376.44;5095044;28;20036;-81
2021/09/14 04:57:38;;;;;;;21.88;14.93;;;16.70;99.90;;;16.77;81.50;101375.75;5095021;28;20047;-81
2021/09/14 05:00:11;;;;;;;21.20;14.30;;;16.60;99.90;;;16.59;82.14;101378.84;5095011;28;20047;-81
2021/09/14 05:02:40;;;;;;;18.50;14.88;;;16.40;99.90;;;16.50;82.82;101379.91;5113338;28;20071;-81
2021/09/14 05:05:10;;;;;;;20.45;15.80;;;16.30;99.90;;;16.45;83.02;101381.75;5094808;28;20050;-81
2021/09/14 05:07:38;;;;;;;24.02;14.57;;;16.30;99.90;;;16.38;83.48;101388.13;5094951;28;20082;-82
2021/09/14 05:10:10;;;;;;;18.02;14.13;;;16.20;99.90;;;16.27;83.44;101379.44;5113178;28;20071;-80
2021/09/14 05:12:45;;;;;;;19.55;15.27;;;16.20;99.90;;;16.34;84.01;101388.22;5094896;28;20070;-81
2021/09/14 05:15:13;;;;;;;28.15;16.23;;;16.10;99.90;;;16.15;84.28;101383.22;5096528;28;20052;-81
2021/09/14 05:18:08;;;;;;;24.27;16.05;;;16.00;99.90;;;16.08;84.62;101388.72;5116448;28;20054;-81
2021/09/14 05:20:57;;;;;;;22.35;16.73;;;15.90;99.90;;;16.06;85.06;101387.84;5115832;28;20060;-80
2021/09/14 05:23:31;;;;;;;18.95;15.13;;;15.90;99.90;;;15.90;86.26;101387.25;5098195;28;20386;-81
2021/09/14 05:26:04;;;;;;;22.10;17.02;;;15.70;99.90;;;15.99;86.05;101375.50;5098263;28;20047;-80
2021/09/14 05:28:35;;;;;;;24.42;15.88;;;15.80;99.90;;;15.94;86.15;101361.41;5098290;28;20059;-81
2021/09/14 05:31:06;;;;;;;20.92;16.75;;;15.80;99.90;;;15.84;86.45;101370.47;5116353;28;20146;-80
2021/09/14 05:33:38;;;;;;;20.02;16.13;;;15.70;99.90;;;15.97;86.29;101358.66;5116239;28;20401;-80
2021/09/14 05:36:08;;;;;;;20.17;16.40;;;15.70;99.90;;;16.02;86.34;101362.13;5098163;28;20052;-80
2021/09/14 05:38:39;;;;;;;18.85;15.82;;;15.80;99.90;;;16.06;86.45;101356.72;5098154;28;20051;-80
2021/09/14 05:41:09;;;;;;;21.67;16.42;;;15.80;99.90;;;16.08;85.86;101346.00;5098163;28;20052;-81
2021/09/14 05:43:37;;;;;;;22.23;16.52;;;15.90;99.90;;;16.17;85.56;101351.16;5097706;28;20468;-80
2021/09/14 05:46:05;;;;;;;22.08;16.45;;;15.90;99.90;;;16.28;85.59;101349.16;5115923;28;20059;-79
2021/09/14 05:48:36;;;;;;;22.17;16.02;;;16.00;99.90;;;15.91;86.43;101354.31;5097786;28;20078;-81
2021/09/14 05:51:06;;;;;;;21.73;16.15;;;15.80;99.90;;;16.01;86.13;101347.03;5097688;28;20120;-80
2021/09/14 05:53:56;;;;;;;23.27;16.27;;;15.80;99.90;;;16.07;86.46;101353.13;5097664;28;20040;-80
2021/09/14 05:56:31;;;;;;;23.35;16.17;;;15.80;99.90;;;16.10;85.80;101344.19;5097692;28;20051;-81
2021/09/14 05:59:05;;;;;;;;;;;15.90;99.90;;;16.11;85.73;101351.28;5098245;28;20036;-81
2021/09/14 06:01:34;;;;;;;24.23;17.10;;;15.90;99.90;;;15.88;86.37;101351.72;5097519;28;19920;-81
2021/09/14 06:04:05;;;;;;;23.45;17.38;;;15.70;99.90;;;15.79;86.92;101349.22;5097374;28;20130;-81
2021/09/14 06:06:35;;;;;;;23.00;17.13;;;15.60;99.90;;;15.69;87.73;101346.75;5097480;28;20081;-81
2021/09/14 06:09:05;;;;;;;23.33;17.30;;;15.50;99.90;;;15.74;88.06;101334.19;5097352;28;20040;-82
2021/09/14 06:11:38;;;;;;;25.08;17.48;;;15.50;99.90;;;15.96;87.30;101340.91;5097440;28;20039;-80
2021/09/14 06:14:07;;;;;;;21.77;17.93;;;15.70;99.90;;;15.96;87.37;101332.91;5097228;28;20078;-81
2021/09/14 06:16:35;;;;;;;25.90;18.52;;;15.70;99.90;;;15.95;86.96;101328.47;5097563;28;20032;-81
2021/09/14 06:19:05;;;;;;;28.90;18.77;;;15.70;99.90;;;15.76;87.20;101329.69;5097236;28;20082;-81
2021/09/14 06:21:38;;;;;;;;;;;15.60;99.90;;;15.93;87.38;101343.63;5097622;28;20040;-80
2021/09/14 06:24:09;;;;;;;25.90;18.75;;;15.70;99.90;;;16.03;87.28;101338.09;5100127;28;20353;-81
2021/09/14 06:26:39;;;;;;;25.60;18.30;;;15.80;99.90;;;16.05;87.07;101344.28;5096578;28;20047;-81
2021/09/14 06:29:10;;;;;;;24.63;19.40;;;15.80;99.90;;;16.08;87.07;101354.03;5097090;28;20412;-80
2021/09/14 06:31:38;;;;;;;26.38;19.55;;;15.80;99.90;;;16.27;87.14;101358.97;5096971;28;20043;-81
2021/09/14 06:34:07;;;;;;;25.85;19.27;;;16.00;99.90;;;16.33;86.40;101360.63;5096781;28;20552;-81
2021/09/14 06:36:37;;;;;;;24.33;18.77;;;16.00;99.90;;;16.20;86.32;101351.97;5096890;28;20054;-80
2021/09/14 06:39:05;;;;;;;25.85;19.17;;;16.10;99.90;;;16.27;86.99;101364.31;5096745;28;20108;-83
2021/09/14 06:41:39;;;;;;;27.50;20.05;;;16.00;99.90;;;16.45;86.28;101362.19;5097051;28;20089;-81
2021/09/14 06:44:10;;;;;;;26.35;19.80;;;16.20;99.90;;;16.51;86.39;101351.41;5096442;28;20043;-81
2021/09/14 06:46:53;;;;;;;25.52;18.65;;;16.20;99.90;;;16.51;85.58;101325.56;5096561;28;20100;-80
2021/09/14 06:49:22;;;;;;;27.65;19.45;;;16.40;99.90;;;16.31;86.07;101354.44;5114515;28;20048;-80
2021/09/14 06:51:50;;;;;;;26.98;19.90;;;16.20;99.90;;;16.07;87.78;101354.91;5114551;28;20068;-81
2021/09/14 06:54:19;;;;;;;25.35;20.33;;;15.90;99.90;;;16.07;87.71;101354.91;5114737;28;20044;-80
2021/09/14 06:56:48;;;;;;;27.77;21.27;;;15.90;99.90;;;16.25;87.59;101351.91;5114415;28;20560;-80
2021/09/14 06:59:17;;;;;;;25.92;19.25;;;15.90;99.90;;;16.42;86.58;101341.75;5114358;28;20050;-81
2021/09/14 07:01:47;;;;;;;25.08;20.13;;;16.20;99.90;;;16.20;87.04;101359.13;5114181;28;20471;-82
2021/09/14 07:04:23;;;;;;;28.25;19.90;;;16.10;99.90;;;16.69;86.95;101327.84;5114429;28;20093;-82
2021/09/14 07:06:51;;;;;;;29.08;20.67;;;16.30;99.90;;;16.54;86.22;101335.31;5114528;28;20467;-82
2021/09/14 07:09:20;;;;;;;31.75;21.48;;;16.40;99.90;;;16.63;85.55;101316.41;5114505;28;20069;-82
2021/09/14 07:11:50;;;;;;;26.77;19.75;;;16.50;99.90;;;16.50;86.87;101339.84;5114138;28;20040;-74
2021/09/14 07:14:18;;;;;;;28.55;20.88;;;16.30;99.90;;;16.54;87.42;101333.53;5114164;28;20040;-84
2021/09/14 07:16:46;;;;;;;27.85;20.90;;;16.30;99.90;;;16.99;86.15;101345.84;5114343;28;20142;-83
2021/09/14 07:19:15;;;;;;;27.92;20.88;;;16.60;99.90;;;16.93;84.38;101346.00;5114395;28;20043;-84
2021/09/14 07:21:43;;;;;;;29.88;21.98;;;16.70;99.90;;;16.64;85.76;101324.41;5096043;28;20110;-82
2021/09/14 07:24:12;;;;;;;26.63;20.65;;;16.50;99.90;;;17.10;85.17;101324.22;5113920;28;20435;-74
2021/09/14 07:26:40;;;;;;;30.98;22.33;;;16.80;99.90;;;17.48;82.93;101331.31;5113788;28;20126;-80
2021/09/14 07:29:10;;;;;;;29.45;22.05;;;17.20;99.90;;;17.61;83.34;101317.63;5113883;28;20070;-85
2021/09/14 07:31:41;;;;;;;29.87;21.87;;;17.20;99.90;;;17.40;83.74;101315.44;5114181;28;20047;-83
2021/09/14 07:34:09;;;;;;;;;;;17.10;99.90;;;17.61;82.75;101308.72;5114284;28;20126;-83
2021/09/14 07:36:37;;;;;;;32.30;22.60;;;17.30;99.90;;;17.67;81.61;101330.81;5113361;28;20010;-83
2021/09/14 07:39:06;;;;;;;28.15;22.20;;;17.40;99.90;;;17.54;82.35;101328.50;5113660;28;20096;-82
2021/09/14 07:41:34;;;;;;;29.10;21.30;;;17.30;99.90;;;17.67;81.72;101348.69;5113871;28;20145;-84
2021/09/14 07:44:02;;;;;;;27.48;22.60;;;17.50;99.90;;;17.86;82.73;101344.59;5095538;28;20055;-83
2021/09/14 07:46:32;;;;;;;29.88;21.92;;;17.50;99.90;;;18.25;80.81;101335.50;5113465;28;20059;-83
2021/09/14 07:49:01;;;;;;;29.13;22.38;;;17.90;99.90;;;18.63;78.28;101329.91;5113854;28;20086;-84
2021/09/14 07:51:30;;;;;;;27.30;22.02;;;18.30;99.90;;;18.62;78.66;101338.00;5113592;28;20553;-84
2021/09/14 07:53:58;;;;;;;27.00;21.27;;;18.40;99.90;;;18.87;78.65;101347.06;5113458;28;20040;-83
2021/09/14 07:56:28;;;;;;;28.38;21.98;;;18.60;99.90;;;19.12;77.07;101337.31;5113543;28;20070;-84
2021/09/14 07:58:56;;;;;;;24.10;20.08;;;18.80;99.90;;;19.20;76.74;101347.81;5113711;28;20047;-84
2021/09/14 08:01:25;;;;;;;29.30;20.52;;;19.00;99.90;;;18.71;76.94;101349.31;5113941;28;20540;-84
2021/09/14 08:03:55;;;;;;;27.80;22.35;;;18.60;99.90;;;18.48;78.64;101351.81;5113730;28;20077;-85
2021/09/14 08:06:23;;;;;;;29.50;22.08;;;18.30;99.90;;;18.93;77.88;101352.22;5113994;28;20125;-84
2021/09/14 08:08:51;;;;;;;25.38;21.25;;;18.50;99.90;;;19.26;76.82;101343.09;5113350;28;20073;-83
2021/09/14 08:11:20;;;;;;;31.17;22.58;;;18.90;99.90;;;19.22;76.17;101337.91;5113695;28;20040;-84
2021/09/14 08:13:50;;;;;;;25.85;21.67;;;19.00;99.90;;;19.01;76.08;101346.63;5113680;28;20082;-84
2021/09/14 08:16:19;;;;;;;;;;;18.80;99.90;;;18.40;78.32;101291.28;5114271;28;20064;-84
2021/09/14 08:18:47;;;;;;;29.70;21.90;;;18.50;99.90;;;18.94;77.16;101343.25;5095690;28;19925;-85
2021/09/14 08:21:17;;;;;;;30.52;23.02;;;18.60;99.90;;;19.15;76.77;101336.31;5095483;28;20047;-82
2021/09/14 08:23:46;;;;;;;27.20;22.87;;;18.80;99.90;;;19.03;77.38;101347.47;5113516;28;20122;-82
2021/09/14 08:26:14;;;;;;;28.05;22.73;;;18.80;99.90;;;19.48;76.47;101356.72;5113058;28;20096;-83
2021/09/14 08:28:42;;;;;;;31.15;23.25;;;19.10;99.90;;;19.24;76.13;101350.31;5094929;28;20130;-82
2021/09/14 08:31:21;;;;;;;28.25;23.13;;;19.00;99.90;;;19.46;77.83;101337.13;5095289;28;20051;-83
2021/09/14 08:33:49;;;;;;;27.05;21.55;;;19.10;99.90;;;20.02;74.86;101341.41;5113871;28;20051;-84
2021/09/14 08:36:19;;;;;;;29.55;22.85;;;19.60;99.90;;;20.04;74.65;101342.22;5113078;28;20043;-83
2021/09/14 08:38:48;;;;;;;36.63;23.27;;;19.70;99.90;;;19.84;75.25;101358.16;5113046;28;20089;-83
2021/09/14 08:41:18;;;;;;;29.60;22.83;;;19.60;99.90;;;19.99;74.73;101357.66;5113216;28;20396;-83
2021/09/14 08:43:49;;;;;;;25.80;21.08;;;19.60;99.90;;;20.08;73.47;101365.38;5113083;28;20044;-84
2021/09/14 08:46:21;;;;;;;24.15;21.48;;;19.80;99.90;;;19.55;74.36;101352.94;5113494;28;20089;-84
2021/09/14 08:48:52;;;;;;;32.25;21.83;;;19.30;99.90;;;19.73;75.58;101345.13;5114333;28;20039;-83
2021/09/14 08:51:22;;;;;;;25.40;21.42;;;19.40;99.90;;;19.92;73.73;101333.75;5117022;28;20374;-82
2021/09/14 08:53:50;;;;;;;28.97;21.87;;;19.60;99.90;;;19.78;73.79;101334.22;5116929;28;20047;-83
2021/09/14 08:56:19;;;;;;;31.73;22.40;;;19.50;99.90;;;19.83;74.44;101336.72;5116649;28;20048;-82
2021/09/14 08:58:57;;;;;;;27.90;23.08;;;19.50;99.90;;;20.15;74.78;101350.78;5117160;28;20040;-83
2021/09/14 09:01:26;;;;;;;32.55;21.92;;;19.70;99.90;;;20.15;74.22;101350.78;5116767;28;20044;-84
2021/09/14 09:03:59;;;;;;;26.15;22.58;;;19.80;99.90;;;20.04;73.74;101357.47;5117024;28;20043;-82
2021/09/14 09:06:40;;;;;;;26.45;21.77;;;19.70;99.90;;;20.01;73.61;101328.94;5116984;28;20397;-85
2021/09/14 09:09:15;;;;;;;30.30;22.70;;;19.80;99.90;;;20.57;73.69;101349.25;5116645;28;20088;-85
2021/09/14 09:11:58;;;;;;;25.17;21.35;;;20.10;99.90;;;20.92;71.73;101361.34;5116564;28;20114;-83
2021/09/14 09:14:37;;;;;;;26.58;20.83;;;20.60;99.90;;;20.93;72.45;101349.63;5116491;28;20097;-83
2021/09/14 09:17:12;;;;;;;24.63;20.23;;;20.60;99.90;;;20.83;71.72;101344.69;5117001;28;20043;-82
2021/09/14 09:19:41;;;;;;;25.23;20.85;;;20.70;99.90;;;20.75;70.56;101361.09;5116734;28;20101;-84
2021/09/14 09:22:12;;;;;;;28.38;20.38;;;20.60;99.90;;;20.97;72.38;101335.13;5116651;28;20568;-84
2021/09/14 09:24:45;;;;;;;31.55;19.65;;;20.60;99.90;;;20.81;70.63;101335.81;5116460;28;20454;-83
2021/09/14 09:27:16;;;;;;;23.15;20.10;;;20.60;99.90;;;21.17;69.51;101340.63;5116971;28;20039;-83
2021/09/14 09:29:44;;;;;;;;;;;20.80;99.90;;;21.42;70.32;101341.38;5116974;28;20043;-83
2021/09/14 09:32:13;;;;;;;25.58;20.20;;;21.00;99.90;;;21.57;71.13;101337.16;5116445;28;20022;-83
2021/09/14 09:34:41;;;;;;;25.42;19.42;;;21.20;99.90;;;21.65;68.91;101329.63;5118979;28;20055;-84
2021/09/14 09:37:11;;;;;;;22.48;20.05;;;21.30;99.90;;;21.34;70.79;101337.25;5116318;28;20047;-81
2021/09/14 09:39:44;;;;;;;23.08;19.25;;;21.10;99.90;;;21.28;68.90;101326.72;5098039;28;20457;-83
2021/09/14 09:42:13;;;;;;;21.58;19.27;;;21.10;99.90;;;21.76;69.46;101343.50;5116135;28;20104;-80
2021/09/14 09:44:54;;;;;;;23.73;19.98;;;21.30;99.90;;;21.97;67.65;101334.53;5116382;28;20062;-83
2021/09/14 09:47:22;;;;;;;;;;;21.70;99.90;;;22.08;69.50;101329.56;5116552;28;20449;-83
2021/09/14 09:49:51;;;;;;;20.85;18.58;;;21.70;99.90;;;22.53;67.70;101321.19;5116101;28;19924;-84
2021/09/14 09:52:22;;;;;;;24.08;18.63;;;22.10;99.90;;;22.67;65.80;101325.97;5116142;28;20065;-82
2021/09/14 09:54:51;;;;;;;;;;;22.40;99.90;;;22.88;64.53;101315.03;5116480;28;20040;-83
2021/09/14 09:57:19;;;;;;;22.80;19.13;;;22.60;99.90;;;22.44;65.42;101330.59;5115705;28;19955;-82
2021/09/14 09:59:48;;;;;;;23.13;18.20;;;22.30;99.90;;;22.52;65.44;101326.66;5114984;28;20048;-83
2021/09/14 10:02:20;;;;;;;21.40;19.10;;;22.20;99.90;;;22.55;67.10;101334.63;5115434;28;20046;-82
2021/09/14 10:04:56;;;;;;;22.88;19.35;;;22.20;99.90;;;22.33;64.65;101342.81;5115810;28;20055;-82
2021/09/14 10:07:29;;;;;;;20.95;18.73;;;22.10;99.90;;;21.89;64.72;101325.91;5115498;28;20134;-83
2021/09/14 10:10:00;;;;;;;31.65;19.98;;;21.80;99.90;;;22.12;66.86;101325.78;5115722;28;20579;-81
2021/09/14 10:12:31;;;;;;;24.05;18.45;;;21.80;99.90;;;22.32;66.44;101325.75;5115416;28;20417;-82
2021/09/14 10:15:05;;;;;;;;;;;22.00;99.90;;;22.91;66.35;101314.91;5116431;28;20051;-81
2021/09/14 10:17:47;;;;;;;21.20;18.42;;;22.50;99.90;;;22.53;64.60;101328.41;5115188;28;20443;-82
2021/09/14 10:20:17;;;;;;;21.38;18.35;;;22.40;99.90;;;22.55;64.01;101327.38;5115985;28;20040;-82
2021/09/14 10:23:06;;;;;;;25.77;20.13;;;22.20;99.90;;;22.37;64.57;101334.53;5115213;28;20048;-82
2021/09/14 10:25:35;;;;;;;23.63;18.73;;;22.10;99.90;;;22.35;65.80;101333.72;5115586;28;20054;-83
2021/09/14 10:28:12;;;;;;;22.60;18.77;;;22.00;99.90;;;22.58;65.58;101323.69;5115264;28;20077;-80
2021/09/14 10:30:41;;;;;;;23.52;18.20;;;22.20;99.90;;;22.67;63.94;101328.66;5115481;28;20040;-80
2021/09/14 10:33:20;;;;;;;22.10;18.03;;;22.40;99.90;;;22.66;64.88;101325.13;5115096;28;20461;-81
2021/09/14 10:35:49;;;;;;;26.98;19.58;;;22.30;99.90;;;22.91;65.24;101314.03;5114811;28;20045;-83
2021/09/14 10:38:20;;;;;;;22.52;19.17;;;22.60;99.90;;;22.89;66.06;101322.19;5114924;28;20438;-85
2021/09/14 10:40:51;;;;;;;27.98;19.85;;;22.60;99.90;;;22.66;64.62;101310.75;5115026;28;20122;-81
2021/09/14 10:43:28;;;;;;;24.05;19.00;;;22.40;99.90;;;22.42;64.04;101286.63;5115014;28;20047;-82
2021/09/14 10:45:58;;;;;;;22.63;20.08;;;22.30;99.90;;;22.86;64.70;101292.66;5114880;28;20048;-82
2021/09/14 10:48:29;;;;;;;25.63;18.90;;;22.50;99.90;;;22.83;64.00;101295.50;5114992;28;20114;-82
2021/09/14 10:51:10;;;;;;;23.48;17.85;;;22.50;99.90;;;23.12;64.38;101291.38;5114498;28;20404;-81
2021/09/14 10:53:40;;;;;;;23.92;18.60;;;22.70;99.90;;;23.28;63.91;101286.97;5114842;28;20096;-81
2021/09/14 10:56:11;;;;;;;23.33;17.27;;;22.90;99.90;;;23.23;63.85;101275.50;5114597;28;20071;-82
2021/09/14 10:58:44;;;;;;;24.67;17.45;;;23.00;99.90;;;23.39;62.39;101290.03;5114619;28;20451;-80
2021/09/14 11:01:21;;;;;;;20.65;18.45;;;23.10;99.90;;;23.25;63.07;101279.91;5114709;28;20088;-81
2021/09/14 11:04:05;;;;;;;20.38;17.02;;;22.90;99.90;;;23.38;63.84;101272.09;5114608;28;20046;-82
2021/09/14 11:06:34;;;;;;;21.08;18.10;;;23.00;99.90;;;23.47;63.03;101222.13;5114199;28;20051;-83
2021/09/14 11:09:06;;;;;;;21.00;17.30;;;23.30;99.90;;;23.48;62.13;101265.25;5114254;28;20050;-82
2021/09/14 11:11:35;;;;;;;21.13;16.67;;;23.20;99.90;;;23.76;63.70;101272.81;5096000;28;20048;-81